Findlay Airport
KFDY : now visible

Airfield :











YOU CAN JOIN US ON...

 
LOGIN :

Register | Disclaimer

   EN    FR    IT 

 









Legend :    VFR   Marginal VFR   IFR   Intensive IFR   Very Intensive IFR
Visi :
Ceiling :
>= 8 km
>= 3000ft
5 to 8 km
1000 to 3000 ft
1500m to 5 km
500 to 1000 ft
800 to 1500m
200 to 500 ft
< 800m
< 200 ft
Symbols :   Thunderstorms  Fog  Heavy snow  Heavy precipitations  Wind > 20 kt






- Airport Elevation : 813 ft


KFDY - Findlay

CURRENT METAR :
  • 301553Z AUTO 32009KT 10SM BKN022 OVC055 06/01 A3021 RMK AO2 SLP230 T00560006

EXPIRED METARs :
  • 301453Z AUTO 31011KT 10SM OVC017 05/00 A3017 RMK AO2 SLP217 T00500000 51031
  • 301418Z AUTO 32008KT 10SM BKN016 OVC055 04/01 A3016 RMK AO2 T00440006
  • 301353Z AUTO 33010KT 10SM FEW020 OVC055 04/01 A3015 RMK AO2 SLP211 T00440006

TAF KFDY
Valid from the 30 at 14:00 until the 31 at 12:00 UTC


301424Z 3014/3112 33010KT P6SM BKN060
TEMPO 3014/3016 BKN015
FM301900 33007KT P6SM FEW060
FM302200 VRB04KT P6SM SKC
KZOB FIR / North America



MET'MAP, your aeronautical weather chart ! - Copyright ORBIFLY December 2007 - Disclaimer

ORBIFLY MET'MAP TEAM :

Programming & Development : Alexandra Zaïnal
Concept & original design : Baudouin d'Aumeries
Assistance for programming : Marc-Olivier Méhu
Technical & hardware support : Manuel Goepfert

Contact : metmap@orbifly.com




SOURCES & CREDITS :

   NOAA       Earth
Advisory